sensor_id;sensor_type;location;lat;lon;timestamp;temperature;humidity
27258;DHT22;62045;49.986;8.672;2023-03-12T00:02:37;17.40;46.80
27258;DHT22;62045;49.986;8.672;2023-03-12T00:07:38;17.40;46.80
27258;DHT22;62045;49.986;8.672;2023-03-12T00:12:38;17.40;46.80
27258;DHT22;62045;49.986;8.672;2023-03-12T00:17:40;17.30;46.80
27258;DHT22;62045;49.986;8.672;2023-03-12T00:22:41;17.20;47.00
27258;DHT22;62045;49.986;8.672;2023-03-12T00:27:41;17.10;47.10
27258;DHT22;62045;49.986;8.672;2023-03-12T00:32:44;17.00;47.20
27258;DHT22;62045;49.986;8.672;2023-03-12T00:37:44;17.00;47.30
27258;DHT22;62045;49.986;8.672;2023-03-12T00:42:45;17.00;47.20
27258;DHT22;62045;49.986;8.672;2023-03-12T00:47:46;17.10;47.10
27258;DHT22;62045;49.986;8.672;2023-03-12T00:52:47;17.20;46.90
27258;DHT22;62045;49.986;8.672;2023-03-12T00:57:48;17.30;46.80
27258;DHT22;62045;49.986;8.672;2023-03-12T01:02:50;17.40;46.70
27258;DHT22;62045;49.986;8.672;2023-03-12T01:07:50;17.30;46.70
27258;DHT22;62045;49.986;8.672;2023-03-12T01:12:51;17.30;46.80
27258;DHT22;62045;49.986;8.672;2023-03-12T01:17:53;17.20;46.80
27258;DHT22;62045;49.986;8.672;2023-03-12T01:22:53;17.10;47.00
27258;DHT22;62045;49.986;8.672;2023-03-12T01:27:54;17.00;47.10
27258;DHT22;62045;49.986;8.672;2023-03-12T01:32:56;16.90;47.10
27258;DHT22;62045;49.986;8.672;2023-03-12T01:37:56;17.00;47.20
27258;DHT22;62045;49.986;8.672;2023-03-12T01:42:57;17.10;47.00
27258;DHT22;62045;49.986;8.672;2023-03-12T01:47:59;17.20;46.90
27258;DHT22;62045;49.986;8.672;2023-03-12T01:53:00;17.30;46.80
27258;DHT22;62045;49.986;8.672;2023-03-12T01:58:00;17.30;47.20
27258;DHT22;62045;49.986;8.672;2023-03-12T02:03:03;17.30;46.60
27258;DHT22;62045;49.986;8.672;2023-03-12T02:08:08;17.30;46.60
27258;DHT22;62045;49.986;8.672;2023-03-12T02:13:08;17.20;46.70
27258;DHT22;62045;49.986;8.672;2023-03-12T02:18:12;17.10;46.80
27258;DHT22;62045;49.986;8.672;2023-03-12T02:23:16;17.10;47.00
27258;DHT22;62045;49.986;8.672;2023-03-12T02:28:20;17.00;47.10
27258;DHT22;62045;49.986;8.672;2023-03-12T02:33:22;17.00;47.10
27258;DHT22;62045;49.986;8.672;2023-03-12T02:38:30;17.10;47.00
27258;DHT22;62045;49.986;8.672;2023-03-12T02:43:32;17.20;46.90
27258;DHT22;62045;49.986;8.672;2023-03-12T02:48:33;17.20;46.70
27258;DHT22;62045;49.986;8.672;2023-03-12T02:53:34;17.30;46.70
27258;DHT22;62045;49.986;8.672;2023-03-12T02:58:36;17.20;46.60
27258;DHT22;62045;49.986;8.672;2023-03-12T03:03:37;17.20;46.60
27258;DHT22;62045;49.986;8.672;2023-03-12T03:08:37;17.10;46.70
27258;DHT22;62045;49.986;8.672;2023-03-12T03:13:39;17.00;46.80
27258;DHT22;62045;49.986;8.672;2023-03-12T03:18:40;17.00;46.90
27258;DHT22;62045;49.986;8.672;2023-03-12T03:23:41;16.90;47.00
27258;DHT22;62045;49.986;8.672;2023-03-12T03:28:43;17.00;47.00
27258;DHT22;62045;49.986;8.672;2023-03-12T03:33:43;17.00;46.90
27258;DHT22;62045;49.986;8.672;2023-03-12T03:38:46;17.10;46.70
27258;DHT22;62045;49.986;8.672;2023-03-12T03:43:48;17.20;46.60
27258;DHT22;62045;49.986;8.672;2023-03-12T03:48:52;17.20;46.50
27258;DHT22;62045;49.986;8.672;2023-03-12T03:53:54;17.20;46.50
27258;DHT22;62045;49.986;8.672;2023-03-12T03:58:57;17.10;46.50
27258;DHT22;62045;49.986;8.672;2023-03-12T04:03:57;17.10;46.70
27258;DHT22;62045;49.986;8.672;2023-03-12T04:08:58;17.00;46.80
27258;DHT22;62045;49.986;8.672;2023-03-12T04:14:02;16.90;46.80
27258;DHT22;62045;49.986;8.672;2023-03-12T04:19:06;16.90;46.90
27258;DHT22;62045;49.986;8.672;2023-03-12T04:24:07;16.90;46.80
27258;DHT22;62045;49.986;8.672;2023-03-12T04:29:13;17.00;46.80
27258;DHT22;62045;49.986;8.672;2023-03-12T04:34:15;17.10;46.60
27258;DHT22;62045;49.986;8.672;2023-03-12T04:39:19;17.20;46.50
27258;DHT22;62045;49.986;8.672;2023-03-12T04:44:23;17.20;46.40
27258;DHT22;62045;49.986;8.672;2023-03-12T04:49:24;17.20;46.40
27258;DHT22;62045;49.986;8.672;2023-03-12T04:54:25;17.10;46.50
27258;DHT22;62045;49.986;8.672;2023-03-12T04:59:27;17.00;46.50
27258;DHT22;62045;49.986;8.672;2023-03-12T05:04:28;17.00;46.70
27258;DHT22;62045;49.986;8.672;2023-03-12T05:09:29;16.90;46.80
27258;DHT22;62045;49.986;8.672;2023-03-12T05:14:31;16.80;46.90
27258;DHT22;62045;49.986;8.672;2023-03-12T05:19:32;17.00;46.90
27258;DHT22;62045;49.986;8.672;2023-03-12T05:24:33;17.10;46.70
27258;DHT22;62045;49.986;8.672;2023-03-12T05:29:37;17.30;46.50
27258;DHT22;62045;49.986;8.672;2023-03-12T05:34:37;17.40;46.20
27258;DHT22;62045;49.986;8.672;2023-03-12T05:39:38;17.50;46.10
27258;DHT22;62045;49.986;8.672;2023-03-12T05:44:41;17.50;46.10
27258;DHT22;62045;49.986;8.672;2023-03-12T05:49:44;17.40;46.20
27258;DHT22;62045;49.986;8.672;2023-03-12T05:54:44;17.30;46.30
27258;DHT22;62045;49.986;8.672;2023-03-12T05:59:46;17.20;46.40
27258;DHT22;62045;49.986;8.672;2023-03-12T06:04:48;17.00;46.50
27258;DHT22;62045;49.986;8.672;2023-03-12T06:09:49;17.00;46.60
27258;DHT22;62045;49.986;8.672;2023-03-12T06:14:52;17.10;46.60
27258;DHT22;62045;49.986;8.672;2023-03-12T06:19:52;17.30;46.30
27258;DHT22;62045;49.986;8.672;2023-03-12T06:24:54;17.50;46.00
27258;DHT22;62045;49.986;8.672;2023-03-12T06:29:56;17.50;45.90
27258;DHT22;62045;49.986;8.672;2023-03-12T06:34:57;17.50;45.80
27258;DHT22;62045;49.986;8.672;2023-03-12T06:39:58;17.50;46.00
27258;DHT22;62045;49.986;8.672;2023-03-12T06:44:59;17.40;46.10
27258;DHT22;62045;49.986;8.672;2023-03-12T06:50:00;17.20;46.10
27258;DHT22;62045;49.986;8.672;2023-03-12T06:55:01;17.10;46.40
27258;DHT22;62045;49.986;8.672;2023-03-12T07:00:03;17.00;46.50
27258;DHT22;62045;49.986;8.672;2023-03-12T07:05:04;16.90;46.60
27258;DHT22;62045;49.986;8.672;2023-03-12T07:10:05;17.00;46.50
27258;DHT22;62045;49.986;8.672;2023-03-12T07:15:07;17.20;46.40
27258;DHT22;62045;49.986;8.672;2023-03-12T07:20:09;17.40;46.10
27258;DHT22;62045;49.986;8.672;2023-03-12T07:25:09;17.50;45.90
27258;DHT22;62045;49.986;8.672;2023-03-12T07:30:12;17.50;45.80
27258;DHT22;62045;49.986;8.672;2023-03-12T07:35:12;17.40;45.80
27258;DHT22;62045;49.986;8.672;2023-03-12T07:40:13;17.30;45.90
27258;DHT22;62045;49.986;8.672;2023-03-12T07:45:15;17.20;46.10
27258;DHT22;62045;49.986;8.672;2023-03-12T07:50:16;17.10;46.20
27258;DHT22;62045;49.986;8.672;2023-03-12T07:55:17;17.00;46.30
27258;DHT22;62045;49.986;8.672;2023-03-12T08:00:19;16.90;46.40
27258;DHT22;62045;49.986;8.672;2023-03-12T08:05:19;17.10;46.50
27258;DHT22;62045;49.986;8.672;2023-03-12T08:10:20;17.20;46.30
27258;DHT22;62045;49.986;8.672;2023-03-12T08:15:22;17.50;46.00
27258;DHT22;62045;49.986;8.672;2023-03-12T08:20:23;17.60;45.80
27258;DHT22;62045;49.986;8.672;2023-03-12T08:25:23;17.60;45.70
27258;DHT22;62045;49.986;8.672;2023-03-12T08:30:25;17.60;45.80
27258;DHT22;62045;49.986;8.672;2023-03-12T08:35:26;17.50;45.90
27258;DHT22;62045;49.986;8.672;2023-03-12T08:40:26;17.40;46.00
27258;DHT22;62045;49.986;8.672;2023-03-12T08:45:28;17.30;46.20
27258;DHT22;62045;49.986;8.672;2023-03-12T08:50:29;17.10;46.30
27258;DHT22;62045;49.986;8.672;2023-03-12T08:55:29;17.00;46.50
27258;DHT22;62045;49.986;8.672;2023-03-12T09:00:31;16.90;46.60
27258;DHT22;62045;49.986;8.672;2023-03-12T09:05:32;16.90;46.60
27258;DHT22;62045;49.986;8.672;2023-03-12T09:10:32;17.20;46.50
27258;DHT22;62045;49.986;8.672;2023-03-12T09:15:34;17.40;46.20
27258;DHT22;62045;49.986;8.672;2023-03-12T09:20:35;17.50;45.80
27258;DHT22;62045;49.986;8.672;2023-03-12T09:25:35;17.60;45.70
27258;DHT22;62045;49.986;8.672;2023-03-12T09:30:37;17.60;45.70
27258;DHT22;62045;49.986;8.672;2023-03-12T09:35:38;17.50;45.80
27258;DHT22;62045;49.986;8.672;2023-03-12T09:40:38;17.40;46.20
27258;DHT22;62045;49.986;8.672;2023-03-12T09:45:42;17.30;46.50
27258;DHT22;62045;49.986;8.672;2023-03-12T09:50:44;17.20;46.80
27258;DHT22;62045;49.986;8.672;2023-03-12T09:55:46;17.10;47.00
27258;DHT22;62045;49.986;8.672;2023-03-12T10:00:48;17.00;47.20
27258;DHT22;62045;49.986;8.672;2023-03-12T10:05:55;17.00;47.30
27258;DHT22;62045;49.986;8.672;2023-03-12T10:11:01;17.10;47.50
27258;DHT22;62045;49.986;8.672;2023-03-12T10:16:09;17.30;46.90
27258;DHT22;62045;49.986;8.672;2023-03-12T10:21:12;17.50;46.60
27258;DHT22;62045;49.986;8.672;2023-03-12T10:26:17;17.50;46.50
27258;DHT22;62045;49.986;8.672;2023-03-12T10:31:20;17.50;46.50
27258;DHT22;62045;49.986;8.672;2023-03-12T10:36:23;17.40;46.50
27258;DHT22;62045;49.986;8.672;2023-03-12T10:41:27;17.30;46.50
27258;DHT22;62045;49.986;8.672;2023-03-12T10:46:40;17.20;46.70
27258;DHT22;62045;49.986;8.672;2023-03-12T10:51:52;17.10;46.80
27258;DHT22;62045;49.986;8.672;2023-03-12T10:56:52;17.00;47.00
27258;DHT22;62045;49.986;8.672;2023-03-12T11:01:54;17.10;47.10
27258;DHT22;62045;49.986;8.672;2023-03-12T11:07:02;17.20;46.90
27258;DHT22;62045;49.986;8.672;2023-03-12T11:12:11;17.40;46.60
27258;DHT22;62045;49.986;8.672;2023-03-12T11:17:23;17.60;46.40
27258;DHT22;62045;49.986;8.672;2023-03-12T11:22:28;17.60;46.30
27258;DHT22;62045;49.986;8.672;2023-03-12T11:27:40;17.60;46.40
27258;DHT22;62045;49.986;8.672;2023-03-12T11:32:44;17.60;46.50
27258;DHT22;62045;49.986;8.672;2023-03-12T11:37:48;17.50;46.60
27258;DHT22;62045;49.986;8.672;2023-03-12T11:42:57;17.40;47.30
27258;DHT22;62045;49.986;8.672;2023-03-12T11:48:05;17.30;49.70
27258;DHT22;62045;49.986;8.672;2023-03-12T11:53:15;17.30;50.90
27258;DHT22;62045;49.986;8.672;2023-03-12T11:58:25;17.30;52.20
27258;DHT22;62045;49.986;8.672;2023-03-12T12:03:45;17.20;52.40
27258;DHT22;62045;49.986;8.672;2023-03-12T12:08:52;17.20;52.20
27258;DHT22;62045;49.986;8.672;2023-03-12T12:13:58;17.10;52.80
27258;DHT22;62045;49.986;8.672;2023-03-12T12:19:09;17.20;52.40
27258;DHT22;62045;49.986;8.672;2023-03-12T12:24:13;17.40;51.90
27258;DHT22;62045;49.986;8.672;2023-03-12T12:29:19;17.50;53.40
27258;DHT22;62045;49.986;8.672;2023-03-12T12:39:41;17.40;51.50
27258;DHT22;62045;49.986;8.672;2023-03-12T13:11:05;17.40;50.00
27258;DHT22;62045;49.986;8.672;2023-03-12T13:16:30;17.60;49.60
27258;DHT22;62045;49.986;8.672;2023-03-12T13:21:36;17.70;49.30
27258;DHT22;62045;49.986;8.672;2023-03-12T13:26:50;17.60;49.10
27258;DHT22;62045;49.986;8.672;2023-03-12T13:31:51;17.60;49.10
27258;DHT22;62045;49.986;8.672;2023-03-12T13:36:56;17.50;49.10
27258;DHT22;62045;49.986;8.672;2023-03-12T13:41:59;17.40;49.30
27258;DHT22;62045;49.986;8.672;2023-03-12T13:47:00;17.30;49.30
27258;DHT22;62045;49.986;8.672;2023-03-12T13:52:18;17.20;49.50
27258;DHT22;62045;49.986;8.672;2023-03-12T13:57:30;17.20;49.60
27258;DHT22;62045;49.986;8.672;2023-03-12T14:02:36;17.30;49.50
27258;DHT22;62045;49.986;8.672;2023-03-12T14:08:00;17.50;49.30
27258;DHT22;62045;49.986;8.672;2023-03-12T14:13:15;17.60;49.10
27258;DHT22;62045;49.986;8.672;2023-03-12T14:18:24;17.70;49.00
27258;DHT22;62045;49.986;8.672;2023-03-12T14:23:28;17.60;49.00
27258;DHT22;62045;49.986;8.672;2023-03-12T14:28:31;17.60;49.10
27258;DHT22;62045;49.986;8.672;2023-03-12T14:33:41;17.50;49.30
27258;DHT22;62045;49.986;8.672;2023-03-12T14:38:46;17.40;49.50
27258;DHT22;62045;49.986;8.672;2023-03-12T14:43:51;17.30;49.70
27258;DHT22;62045;49.986;8.672;2023-03-12T14:48:53;17.20;50.00
27258;DHT22;62045;49.986;8.672;2023-03-12T14:53:54;17.20;51.50
27258;DHT22;62045;49.986;8.672;2023-03-12T14:58:58;17.50;55.80
27258;DHT22;62045;49.986;8.672;2023-03-12T15:04:01;17.70;54.60
27258;DHT22;62045;49.986;8.672;2023-03-12T15:09:04;17.90;53.50
27258;DHT22;62045;49.986;8.672;2023-03-12T15:14:11;17.90;53.00
27258;DHT22;62045;49.986;8.672;2023-03-12T15:19:15;17.90;52.80
27258;DHT22;62045;49.986;8.672;2023-03-12T15:24:18;17.80;52.40
27258;DHT22;62045;49.986;8.672;2023-03-12T15:29:22;17.70;52.30
27258;DHT22;62045;49.986;8.672;2023-03-12T15:34:29;17.70;52.30
27258;DHT22;62045;49.986;8.672;2023-03-12T15:39:31;17.60;52.30
27258;DHT22;62045;49.986;8.672;2023-03-12T15:44:42;17.50;52.20
27258;DHT22;62045;49.986;8.672;2023-03-12T15:49:48;17.40;52.30
27258;DHT22;62045;49.986;8.672;2023-03-12T15:54:59;17.30;52.30
27258;DHT22;62045;49.986;8.672;2023-03-12T16:00:20;17.20;52.40
27258;DHT22;62045;49.986;8.672;2023-03-12T16:05:23;17.20;52.30
27258;DHT22;62045;49.986;8.672;2023-03-12T16:10:25;17.30;52.10
27258;DHT22;62045;49.986;8.672;2023-03-12T16:15:30;17.50;51.80
27258;DHT22;62045;49.986;8.672;2023-03-12T16:20:31;17.50;51.60
27258;DHT22;62045;49.986;8.672;2023-03-12T16:25:32;17.50;51.50
27258;DHT22;62045;49.986;8.672;2023-03-12T16:30:35;17.60;51.50
27258;DHT22;62045;49.986;8.672;2023-03-12T16:35:36;17.50;51.50
27258;DHT22;62045;49.986;8.672;2023-03-12T16:40:39;17.50;51.50
27258;DHT22;62045;49.986;8.672;2023-03-12T16:45:44;17.40;51.60
27258;DHT22;62045;49.986;8.672;2023-03-12T16:50:49;17.40;51.70
27258;DHT22;62045;49.986;8.672;2023-03-12T16:55:52;17.30;51.90
27258;DHT22;62045;49.986;8.672;2023-03-12T17:00:55;17.20;51.80
27258;DHT22;62045;49.986;8.672;2023-03-12T17:05:56;17.20;52.00
27258;DHT22;62045;49.986;8.672;2023-03-12T17:10:58;17.20;51.90
27258;DHT22;62045;49.986;8.672;2023-03-12T17:16:00;17.30;51.70
27258;DHT22;62045;49.986;8.672;2023-03-12T17:21:01;17.50;51.50
27258;DHT22;62045;49.986;8.672;2023-03-12T17:26:02;17.60;51.30
27258;DHT22;62045;49.986;8.672;2023-03-12T17:31:04;17.60;51.10
27258;DHT22;62045;49.986;8.672;2023-03-12T17:36:07;17.60;51.10
27258;DHT22;62045;49.986;8.672;2023-03-12T17:41:08;17.60;51.60
27258;DHT22;62045;49.986;8.672;2023-03-12T17:46:10;17.50;51.70
27258;DHT22;62045;49.986;8.672;2023-03-12T17:51:11;17.50;52.40
27258;DHT22;62045;49.986;8.672;2023-03-12T17:56:12;17.40;52.10
27258;DHT22;62045;49.986;8.672;2023-03-12T18:01:15;17.40;52.30
27258;DHT22;62045;49.986;8.672;2023-03-12T18:06:16;17.30;52.20
27258;DHT22;62045;49.986;8.672;2023-03-12T18:11:16;17.20;52.30
27258;DHT22;62045;49.986;8.672;2023-03-12T18:16:18;17.10;52.30
27258;DHT22;62045;49.986;8.672;2023-03-12T18:21:19;17.10;52.30
27258;DHT22;62045;49.986;8.672;2023-03-12T18:26:20;17.20;52.20
27258;DHT22;62045;49.986;8.672;2023-03-12T18:31:22;17.30;52.00
27258;DHT22;62045;49.986;8.672;2023-03-12T18:36:23;17.50;51.80
27258;DHT22;62045;49.986;8.672;2023-03-12T18:41:23;17.50;51.60
27258;DHT22;62045;49.986;8.672;2023-03-12T18:46:25;17.50;51.50
27258;DHT22;62045;49.986;8.672;2023-03-12T18:51:26;17.50;51.40
27258;DHT22;62045;49.986;8.672;2023-03-12T18:56:27;17.50;51.50
27258;DHT22;62045;49.986;8.672;2023-03-12T19:01:29;17.40;51.50
27258;DHT22;62045;49.986;8.672;2023-03-12T19:06:30;17.30;51.60
27258;DHT22;62045;49.986;8.672;2023-03-12T19:11:31;17.20;51.60
27258;DHT22;62045;49.986;8.672;2023-03-12T19:16:33;17.20;51.70
27258;DHT22;62045;49.986;8.672;2023-03-12T19:21:33;17.20;51.80
27258;DHT22;62045;49.986;8.672;2023-03-12T19:26:34;17.20;51.80
27258;DHT22;62045;49.986;8.672;2023-03-12T19:31:36;17.40;51.70
27258;DHT22;62045;49.986;8.672;2023-03-12T19:36:37;17.50;51.40
27258;DHT22;62045;49.986;8.672;2023-03-12T19:41:38;17.60;51.30
27258;DHT22;62045;49.986;8.672;2023-03-12T19:46:40;17.60;51.20
27258;DHT22;62045;49.986;8.672;2023-03-12T19:51:41;17.50;51.20
27258;DHT22;62045;49.986;8.672;2023-03-12T19:56:42;17.50;51.30
27258;DHT22;62045;49.986;8.672;2023-03-12T20:01:44;17.40;51.30
27258;DHT22;62045;49.986;8.672;2023-03-12T20:06:45;17.40;51.40
27258;DHT22;62045;49.986;8.672;2023-03-12T20:11:45;17.30;51.50
27258;DHT22;62045;49.986;8.672;2023-03-12T20:16:48;17.20;51.60
27258;DHT22;62045;49.986;8.672;2023-03-12T20:21:48;17.20;51.70
27258;DHT22;62045;49.986;8.672;2023-03-12T20:26:49;17.20;51.60
27258;DHT22;62045;49.986;8.672;2023-03-12T20:31:51;17.40;51.40
27258;DHT22;62045;49.986;8.672;2023-03-12T20:36:52;17.50;51.20
27258;DHT22;62045;49.986;8.672;2023-03-12T20:41:53;17.60;51.00
27258;DHT22;62045;49.986;8.672;2023-03-12T20:46:55;17.60;51.00
27258;DHT22;62045;49.986;8.672;2023-03-12T20:51:56;17.50;51.00
27258;DHT22;62045;49.986;8.672;2023-03-12T20:56:56;17.50;51.00
27258;DHT22;62045;49.986;8.672;2023-03-12T21:01:58;17.40;52.20
27258;DHT22;62045;49.986;8.672;2023-03-12T21:06:59;17.40;51.70
27258;DHT22;62045;49.986;8.672;2023-03-12T21:12:00;17.30;51.90
27258;DHT22;62045;49.986;8.672;2023-03-12T21:17:02;17.30;52.10
27258;DHT22;62045;49.986;8.672;2023-03-12T21:22:03;17.20;52.20
27258;DHT22;62045;49.986;8.672;2023-03-12T21:27:04;17.10;52.20
27258;DHT22;62045;49.986;8.672;2023-03-12T21:32:06;17.00;52.20
27258;DHT22;62045;49.986;8.672;2023-03-12T21:37:06;17.00;52.30
27258;DHT22;62045;49.986;8.672;2023-03-12T21:42:07;17.00;52.40
27258;DHT22;62045;49.986;8.672;2023-03-12T21:47:09;16.90;52.50
27258;DHT22;62045;49.986;8.672;2023-03-12T21:52:11;16.80;52.70
27258;DHT22;62045;49.986;8.672;2023-03-12T21:57:11;16.80;52.80
27258;DHT22;62045;49.986;8.672;2023-03-12T22:02:14;16.80;52.70
27258;DHT22;62045;49.986;8.672;2023-03-12T22:07:15;16.80;52.60
27258;DHT22;62045;49.986;8.672;2023-03-12T22:12:15;16.80;52.50
27258;DHT22;62045;49.986;8.672;2023-03-12T22:17:17;16.90;52.50
27258;DHT22;62045;49.986;8.672;2023-03-12T22:22:18;16.90;52.50
27258;DHT22;62045;49.986;8.672;2023-03-12T22:27:19;16.80;52.50
27258;DHT22;62045;49.986;8.672;2023-03-12T22:32:21;16.80;52.50
27258;DHT22;62045;49.986;8.672;2023-03-12T22:37:22;16.80;52.50
27258;DHT22;62045;49.986;8.672;2023-03-12T22:42:22;16.70;52.50
27258;DHT22;62045;49.986;8.672;2023-03-12T22:47:24;16.70;52.60
27258;DHT22;62045;49.986;8.672;2023-03-12T22:52:25;16.70;52.60
27258;DHT22;62045;49.986;8.672;2023-03-12T22:57:26;16.60;52.60
27258;DHT22;62045;49.986;8.672;2023-03-12T23:02:28;16.60;52.70
27258;DHT22;62045;49.986;8.672;2023-03-12T23:07:29;16.60;52.70
27258;DHT22;62045;49.986;8.672;2023-03-12T23:12:29;16.50;52.70
27258;DHT22;62045;49.986;8.672;2023-03-12T23:17:31;16.50;52.90
27258;DHT22;62045;49.986;8.672;2023-03-12T23:22:32;16.50;52.90
27258;DHT22;62045;49.986;8.672;2023-03-12T23:27:33;16.60;52.80
27258;DHT22;62045;49.986;8.672;2023-03-12T23:32:35;16.80;52.60
27258;DHT22;62045;49.986;8.672;2023-03-12T23:37:36;17.00;52.20
27258;DHT22;62045;49.986;8.672;2023-03-12T23:42:36;17.20;51.90
27258;DHT22;62045;49.986;8.672;2023-03-12T23:47:38;17.30;51.70
27258;DHT22;62045;49.986;8.672;2023-03-12T23:52:39;17.40;51.50
27258;DHT22;62045;49.986;8.672;2023-03-12T23:57:40;17.40;51.40
